Time,TemperatureF,DewpointF,PressureIn,WindDirection,WindDirectionDegrees,WindSpeedMPH,WindSpeedGustMPH,Humidity,HourlyPrecipIn,Conditions,Clouds,dailyrainin,SolarRadiationWatts/m^2,SoftwareType,DateUTC
2013-12-01 00:06:00,40.6,30.0,30.11,SSW,193,7.0,-999.0,66,-99.99,,,0.00,0,weatherlink.com 1.10,2013-12-01 05:06:00,
2013-12-01 00:21:00,40.3,30.0,30.11,SSW,193,7.0,-999.0,66,-99.99,,,0.00,0,weatherlink.com 1.10,2013-12-01 05:21:00,
2013-12-01 00:36:00,39.8,30.0,30.10,South,184,6.0,-999.0,68,-99.99,,,0.00,0,weatherlink.com 1.10,2013-12-01 05:36:00,
2013-12-01 00:52:00,40.0,30.0,30.10,SSW,197,5.0,-999.0,67,-99.99,,,0.00,0,weatherlink.com 1.10,2013-12-01 05:52:00,
2013-12-01 01:07:00,41.7,29.0,30.09,SSW,203,7.0,-999.0,62,-99.99,,,0.00,0,weatherlink.com 1.10,2013-12-01 06:07:00,
2013-12-01 01:22:00,42.0,30.0,30.09,SSW,209,10.0,-999.0,62,-99.99,,,0.00,0,weatherlink.com 1.10,2013-12-01 06:22:00,
2013-12-01 01:37:00,42.0,30.0,30.08,SSW,204,7.0,-999.0,62,-99.99,,,0.00,0,weatherlink.com 1.10,2013-12-01 06:37:00,
2013-12-01 01:52:00,41.6,29.0,30.08,SSW,210,6.0,-999.0,62,-99.99,,,0.00,0,weatherlink.com 1.10,2013-12-01 06:52:00,
2013-12-01 02:07:00,40.7,30.0,30.08,SSW,195,6.0,-999.0,65,-99.99,,,0.00,0,weatherlink.com 1.10,2013-12-01 07:07:00,
2013-12-01 02:22:00,39.5,29.0,30.08,SSW,197,5.0,-999.0,67,-99.99,,,0.00,0,weatherlink.com 1.10,2013-12-01 07:22:00,
2013-12-01 02:37:00,38.8,29.0,30.08,SSW,197,5.0,-999.0,68,-99.99,,,0.00,0,weatherlink.com 1.10,2013-12-01 07:37:00,
2013-12-01 02:52:00,38.4,30.0,30.08,SSW,196,5.0,-999.0,71,-99.99,,,0.00,0,weatherlink.com 1.10,2013-12-01 07:52:00,
2013-12-01 03:07:00,38.4,30.0,30.08,South,191,4.0,-999.0,71,-99.99,,,0.00,0,weatherlink.com 1.10,2013-12-01 08:07:00,
2013-12-01 03:22:00,38.4,30.0,30.07,South,191,5.0,-999.0,72,-99.99,,,0.00,0,weatherlink.com 1.10,2013-12-01 08:22:00,
2013-12-01 03:37:00,38.5,30.0,30.07,South,189,6.0,-999.0,72,-99.99,,,0.00,0,weatherlink.com 1.10,2013-12-01 08:37:00,
2013-12-01 03:52:00,39.7,31.0,30.06,SSW,206,6.0,-999.0,70,-99.99,,,0.00,0,weatherlink.com 1.10,2013-12-01 08:52:00,
2013-12-01 04:07:00,40.5,30.0,30.06,SSW,212,5.0,-999.0,67,-99.99,,,0.00,0,weatherlink.com 1.10,2013-12-01 09:07:00,
2013-12-01 04:22:00,40.1,30.0,30.05,SSW,204,6.0,-999.0,67,-99.99,,,0.00,0,weatherlink.com 1.10,2013-12-01 09:22:00,
2013-12-01 04:37:00,39.1,30.0,30.05,SW,215,7.0,-999.0,69,-99.99,,,0.00,0,weatherlink.com 1.10,2013-12-01 09:37:00,
2013-12-01 04:52:00,38.1,29.0,30.05,SSW,205,7.0,-999.0,70,-99.99,,,0.00,0,weatherlink.com 1.10,2013-12-01 09:52:00,
2013-12-01 05:07:00,37.6,29.0,30.05,SSW,201,6.0,-999.0,71,-99.99,,,0.00,0,weatherlink.com 1.10,2013-12-01 10:07:00,
2013-12-01 05:22:00,35.9,29.0,30.05,SSW,201,4.0,-999.0,75,-99.99,,,0.00,0,weatherlink.com 1.10,2013-12-01 10:22:00,
2013-12-01 05:37:00,33.3,27.0,30.05,South,186,6.0,-999.0,77,-99.99,,,0.00,0,weatherlink.com 1.10,2013-12-01 10:37:00,
2013-12-01 05:52:00,33.7,28.0,30.05,SSW,208,4.0,-999.0,80,-99.99,,,0.00,0,weatherlink.com 1.10,2013-12-01 10:52:00,
2013-12-01 06:07:00,35.0,28.0,30.06,SSW,206,4.0,-999.0,77,-99.99,,,0.00,0,weatherlink.com 1.10,2013-12-01 11:07:00,
2013-12-01 06:22:00,34.1,28.0,30.05,SSW,208,3.0,-999.0,78,-99.99,,,0.00,0,weatherlink.com 1.10,2013-12-01 11:22:00,
2013-12-01 06:37:00,33.6,28.0,30.06,SSW,209,3.0,-999.0,79,-99.99,,,0.00,0,weatherlink.com 1.10,2013-12-01 11:37:00,
2013-12-01 06:52:00,33.4,28.0,30.05,SSW,210,1.0,-999.0,80,-99.99,,,0.00,0,weatherlink.com 1.10,2013-12-01 11:52:00,
2013-12-01 07:07:00,33.2,28.0,30.06,SSW,210,2.0,-999.0,80,-99.99,,,0.00,0,weatherlink.com 1.10,2013-12-01 12:07:00,
2013-12-01 07:22:00,32.9,28.0,30.06,South,185,5.0,-999.0,82,-99.99,,,0.00,0,weatherlink.com 1.10,2013-12-01 12:22:00,
2013-12-01 07:37:00,32.0,27.0,30.06,South,181,5.0,-999.0,82,-99.99,,,0.00,0,weatherlink.com 1.10,2013-12-01 12:37:00,
2013-12-01 07:52:00,31.1,27.0,30.06,South,181,3.0,-999.0,84,-99.99,,,0.00,5,weatherlink.com 1.10,2013-12-01 12:52:00,
2013-12-01 08:07:00,31.2,28.0,30.06,South,181,0.0,-999.0,86,-99.99,,,0.00,19,weatherlink.com 1.10,2013-12-01 13:07:00,
2013-12-01 08:22:00,32.6,29.0,30.07,South,181,0.0,-999.0,85,-99.99,,,0.00,44,weatherlink.com 1.10,2013-12-01 13:22:00,
2013-12-01 08:37:00,34.1,30.0,30.06,SSW,199,4.0,-999.0,84,-99.99,,,0.00,67,weatherlink.com 1.10,2013-12-01 13:37:00,
2013-12-01 08:52:00,35.3,31.0,30.06,South,190,4.0,-999.0,83,-99.99,,,0.00,65,weatherlink.com 1.10,2013-12-01 13:52:00,
2013-12-01 09:07:00,35.4,31.0,30.07,SSW,202,4.0,-999.0,83,-99.99,,,0.00,76,weatherlink.com 1.10,2013-12-01 14:07:00,
2013-12-01 09:22:00,35.9,31.0,30.07,SSW,206,5.0,-999.0,83,-99.99,,,0.00,97,weatherlink.com 1.10,2013-12-01 14:22:00,
2013-12-01 09:37:00,36.5,32.0,30.07,SW,220,0.0,-999.0,83,-99.99,,,0.00,113,weatherlink.com 1.10,2013-12-01 14:37:00,
2013-12-01 09:52:00,37.2,32.0,30.07,SW,218,3.0,-999.0,81,-99.99,,,0.00,130,weatherlink.com 1.10,2013-12-01 14:52:00,
2013-12-01 10:07:00,37.7,32.0,30.07,West,278,5.0,-999.0,81,-99.99,,,0.00,144,weatherlink.com 1.10,2013-12-01 15:07:00,
2013-12-01 10:22:00,37.8,32.0,30.07,WSW,253,4.0,-999.0,80,-99.99,,,0.00,156,weatherlink.com 1.10,2013-12-01 15:22:00,
2013-12-01 10:37:00,37.9,32.0,30.08,WNW,284,3.0,-999.0,80,-99.99,,,0.00,165,weatherlink.com 1.10,2013-12-01 15:37:00,
2013-12-01 10:52:00,38.3,32.0,30.08,WSW,256,6.0,-999.0,79,-99.99,,,0.00,172,weatherlink.com 1.10,2013-12-01 15:52:00,
2013-12-01 11:07:00,38.6,33.0,30.08,WNW,291,7.0,-999.0,79,-99.99,,,0.00,186,weatherlink.com 1.10,2013-12-01 16:07:00,
2013-12-01 11:22:00,38.7,33.0,30.07,NW,307,6.0,-999.0,79,-99.99,,,0.00,204,weatherlink.com 1.10,2013-12-01 16:22:00,
2013-12-01 11:37:00,38.9,33.0,30.07,WNW,291,2.0,-999.0,79,-99.99,,,0.00,271,weatherlink.com 1.10,2013-12-01 16:37:00,
2013-12-01 11:52:00,39.7,34.0,30.06,West,266,6.0,-999.0,79,-99.99,,,0.00,315,weatherlink.com 1.10,2013-12-01 16:52:00,
2013-12-01 12:07:00,40.4,34.0,30.06,WNW,291,4.0,-999.0,78,-99.99,,,0.00,272,weatherlink.com 1.10,2013-12-01 17:07:00,
2013-12-01 12:22:00,41.1,35.0,30.05,NW,312,0.0,-999.0,78,-99.99,,,0.00,404,weatherlink.com 1.10,2013-12-01 17:22:00,
2013-12-01 12:37:00,41.5,35.0,30.04,NW,318,3.0,-999.0,77,-99.99,,,0.00,480,weatherlink.com 1.10,2013-12-01 17:37:00,
2013-12-01 12:52:00,42.0,35.0,30.05,WNW,299,6.0,-999.0,76,-99.99,,,0.00,476,weatherlink.com 1.10,2013-12-01 17:52:00,
2013-12-01 13:07:00,42.5,35.0,30.03,WNW,303,5.0,-999.0,74,-99.99,,,0.00,466,weatherlink.com 1.10,2013-12-01 18:07:00,
2013-12-01 13:22:00,43.5,35.0,30.02,WNW,294,3.0,-999.0,73,-99.99,,,0.00,445,weatherlink.com 1.10,2013-12-01 18:22:00,
2013-12-01 13:37:00,44.5,36.0,30.02,NW,312,6.0,-999.0,71,-99.99,,,0.00,396,weatherlink.com 1.10,2013-12-01 18:37:00,
2013-12-01 13:52:00,44.7,36.0,30.01,NW,321,2.0,-999.0,71,-99.99,,,0.00,378,weatherlink.com 1.10,2013-12-01 18:52:00,
2013-12-01 14:07:00,44.5,36.0,30.00,NNW,341,3.0,-999.0,71,-99.99,,,0.00,359,weatherlink.com 1.10,2013-12-01 19:07:00,
2013-12-01 14:22:00,45.0,36.0,30.00,NW,318,4.0,-999.0,70,-99.99,,,0.00,338,weatherlink.com 1.10,2013-12-01 19:22:00,
2013-12-01 14:37:00,45.1,36.0,30.00,NNW,343,4.0,-999.0,70,-99.99,,,0.00,320,weatherlink.com 1.10,2013-12-01 19:37:00,
2013-12-01 14:52:00,45.7,36.0,30.00,West,270,2.0,-999.0,69,-99.99,,,0.00,290,weatherlink.com 1.10,2013-12-01 19:52:00,
2013-12-01 15:07:00,46.0,36.0,30.00,NNW,331,4.0,-999.0,69,-99.99,,,0.00,258,weatherlink.com 1.10,2013-12-01 20:07:00,
2013-12-01 15:22:00,46.1,36.0,29.99,NW,307,2.0,-999.0,69,-99.99,,,0.00,230,weatherlink.com 1.10,2013-12-01 20:22:00,
2013-12-01 15:37:00,46.0,36.0,29.99,WNW,288,5.0,-999.0,69,-99.99,,,0.00,183,weatherlink.com 1.10,2013-12-01 20:37:00,
2013-12-01 15:52:00,46.0,36.0,29.99,NW,312,4.0,-999.0,69,-99.99,,,0.00,151,weatherlink.com 1.10,2013-12-01 20:52:00,
2013-12-01 16:07:00,45.7,36.0,30.00,NNW,327,1.0,-999.0,69,-99.99,,,0.00,113,weatherlink.com 1.10,2013-12-01 21:07:00,
2013-12-01 16:22:00,45.0,36.0,29.99,NW,318,3.0,-999.0,71,-99.99,,,0.00,54,weatherlink.com 1.10,2013-12-01 21:22:00,
2013-12-01 16:37:00,44.3,36.0,29.99,NW,323,2.0,-999.0,72,-99.99,,,0.00,44,weatherlink.com 1.10,2013-12-01 21:37:00,
2013-12-01 16:52:00,43.7,36.0,30.00,NNW,331,2.0,-999.0,73,-99.99,,,0.00,23,weatherlink.com 1.10,2013-12-01 21:52:00,
2013-12-01 17:07:00,42.8,36.0,30.00,NNW,334,2.0,-999.0,76,-99.99,,,0.00,5,weatherlink.com 1.10,2013-12-01 22:07:00,
2013-12-01 17:22:00,42.2,36.0,30.00,NNW,337,4.0,-999.0,80,-99.99,,,0.00,0,weatherlink.com 1.10,2013-12-01 22:22:00,
2013-12-01 17:37:00,41.8,36.0,30.00,NNW,342,5.0,-999.0,80,-99.99,,,0.00,0,weatherlink.com 1.10,2013-12-01 22:37:00,
2013-12-01 17:52:00,41.5,35.0,30.01,NNW,332,6.0,-999.0,79,-99.99,,,0.00,0,weatherlink.com 1.10,2013-12-01 22:52:00,
2013-12-01 18:07:00,41.1,35.0,30.01,NNE,21,3.0,-999.0,78,-99.99,,,0.00,0,weatherlink.com 1.10,2013-12-01 23:07:00,
2013-12-01 18:22:00,40.8,34.0,30.01,North,8,5.0,-999.0,78,-99.99,,,0.00,0,weatherlink.com 1.10,2013-12-01 23:22:00,
2013-12-01 18:37:00,40.4,34.0,30.01,North,354,6.0,-999.0,78,-99.99,,,0.00,0,weatherlink.com 1.10,2013-12-01 23:37:00,
2013-12-01 18:52:00,39.8,33.0,30.01,North,359,4.0,-999.0,78,-99.99,,,0.00,0,weatherlink.com 1.10,2013-12-01 23:52:00,
2013-12-01 19:07:00,39.0,33.0,30.02,NW,323,4.0,-999.0,79,-99.99,,,0.00,0,weatherlink.com 1.10,2013-12-02 00:07:00,
2013-12-01 19:22:00,38.7,33.0,30.02,North,354,4.0,-999.0,80,-99.99,,,0.00,0,weatherlink.com 1.10,2013-12-02 00:22:00,
2013-12-01 19:37:00,38.3,33.0,30.02,North,359,2.0,-999.0,80,-99.99,,,0.00,0,weatherlink.com 1.10,2013-12-02 00:37:00,
2013-12-01 19:52:00,37.9,32.0,30.02,North,350,3.0,-999.0,80,-99.99,,,0.00,0,weatherlink.com 1.10,2013-12-02 00:52:00,
2013-12-01 20:07:00,37.2,32.0,30.01,NNW,347,1.0,-999.0,80,-99.99,,,0.00,0,weatherlink.com 1.10,2013-12-02 01:07:00,
2013-12-01 20:22:00,36.5,31.0,30.01,North,354,2.0,-999.0,81,-99.99,,,0.00,0,weatherlink.com 1.10,2013-12-02 01:22:00,
2013-12-01 20:37:00,35.5,31.0,30.00,North,350,2.0,-999.0,82,-99.99,,,0.00,0,weatherlink.com 1.10,2013-12-02 01:37:00,
2013-12-01 20:52:00,35.1,30.0,30.01,North,350,3.0,-999.0,83,-99.99,,,0.00,0,weatherlink.com 1.10,2013-12-02 01:52:00,
2013-12-01 21:07:00,35.1,30.0,30.00,NNW,339,2.0,-999.0,83,-99.99,,,0.00,0,weatherlink.com 1.10,2013-12-02 02:07:00,
2013-12-01 21:22:00,34.8,30.0,30.00,NNW,336,3.0,-999.0,84,-99.99,,,0.00,0,weatherlink.com 1.10,2013-12-02 02:22:00,
2013-12-01 21:37:00,35.2,31.0,30.00,NNW,344,0.0,-999.0,83,-99.99,,,0.00,0,weatherlink.com 1.10,2013-12-02 02:37:00,
2013-12-01 21:52:00,34.4,30.0,30.00,NNW,344,0.0,-999.0,84,-99.99,,,0.00,0,weatherlink.com 1.10,2013-12-02 02:52:00,
2013-12-01 22:07:00,34.4,30.0,30.00,NNW,344,0.0,-999.0,84,-99.99,,,0.00,0,weatherlink.com 1.10,2013-12-02 03:07:00,
2013-12-01 22:22:00,34.1,30.0,30.00,NNW,344,0.0,-999.0,85,-99.99,,,0.00,0,weatherlink.com 1.10,2013-12-02 03:22:00,
2013-12-01 22:37:00,33.9,30.0,30.00,NNW,344,0.0,-999.0,85,-99.99,,,0.00,0,weatherlink.com 1.10,2013-12-02 03:37:00,
2013-12-01 22:52:00,32.8,29.0,29.99,NNW,344,1.0,-999.0,86,-99.99,,,0.00,0,weatherlink.com 1.10,2013-12-02 03:52:00,
2013-12-01 23:07:00,33.2,30.0,29.99,NNW,344,0.0,-999.0,86,-99.99,,,0.00,0,weatherlink.com 1.10,2013-12-02 04:07:00,
2013-12-01 23:22:00,33.4,30.0,29.99,NNW,344,0.0,-999.0,86,-99.99,,,0.00,0,weatherlink.com 1.10,2013-12-02 04:22:00,
2013-12-01 23:37:00,33.0,29.0,29.98,NNW,344,0.0,-999.0,86,-99.99,,,0.00,0,weatherlink.com 1.10,2013-12-02 04:37:00,
2013-12-01 23:52:00,32.0,29.0,29.98,NNW,344,0.0,-999.0,87,-99.99,,,0.00,0,weatherlink.com 1.10,2013-12-02 04:52:00,